createdAt,value
2023-02-05T00:01:40.228Z,1.10
2023-02-05T00:04:08.541Z,1.20
2023-02-05T00:06:36.473Z,1.10
2023-02-05T00:09:04.327Z,1.00
2023-02-05T00:11:32.219Z,1.00
2023-02-05T00:14:00.039Z,1.10
2023-02-05T00:16:27.894Z,1.20
2023-02-05T00:18:57.761Z,1.20
2023-02-05T00:21:25.667Z,1.20
2023-02-05T00:23:53.595Z,1.10
2023-02-05T00:26:21.557Z,1.10
2023-02-05T00:28:49.574Z,1.10
2023-02-05T00:31:19.744Z,1.00
2023-02-05T00:33:47.716Z,1.00
2023-02-05T00:36:16.998Z,1.00
2023-02-05T00:38:45.635Z,1.00
2023-02-05T00:41:13.709Z,1.00
2023-02-05T00:43:41.600Z,1.00
2023-02-05T00:46:10.434Z,1.00
2023-02-05T00:48:38.334Z,1.30
2023-02-05T00:51:06.509Z,2.50
2023-02-05T00:53:35.704Z,1.70
2023-02-05T00:56:03.613Z,1.20
2023-02-05T00:58:31.669Z,1.10
2023-02-05T01:00:59.520Z,1.00
2023-02-05T01:03:27.390Z,1.00
2023-02-05T01:05:55.267Z,0.90
2023-02-05T01:08:23.069Z,0.80
2023-02-05T01:10:52.450Z,0.80
2023-02-05T01:13:20.345Z,0.80
2023-02-05T01:15:48.235Z,0.60
2023-02-05T01:18:16.087Z,0.60
2023-02-05T01:20:44.054Z,0.60
2023-02-05T01:23:12.239Z,0.70
2023-02-05T01:25:40.073Z,0.60
2023-02-05T01:28:09.309Z,0.40
2023-02-05T01:30:37.303Z,0.40
2023-02-05T01:33:05.487Z,0.40
2023-02-05T01:35:33.618Z,0.50
2023-02-05T01:38:01.621Z,0.50
2023-02-05T01:40:29.474Z,0.50
2023-02-05T01:42:57.369Z,0.50
2023-02-05T01:46:14.039Z,0.50
2023-02-05T01:48:45.578Z,0.40
2023-02-05T01:51:14.730Z,0.40
2023-02-05T01:53:42.718Z,0.40
2023-02-05T01:56:11.694Z,0.30
2023-02-05T01:58:41.620Z,0.30
2023-02-05T02:01:09.453Z,0.30
2023-02-05T02:03:37.289Z,0.30
2023-02-05T02:06:06.953Z,0.10
2023-02-05T02:08:34.766Z,0.20
2023-02-05T02:11:03.130Z,0.20
2023-02-05T02:13:30.963Z,0.20
2023-02-05T02:15:58.880Z,0.10
2023-02-05T02:18:27.106Z,0.20
2023-02-05T02:21:05.711Z,0.30
2023-02-05T02:23:38.738Z,0.20
2023-02-05T02:26:23.914Z,0.10
2023-02-05T02:28:53.425Z,0.10
2023-02-05T02:31:24.677Z,0.10
2023-02-05T02:33:54.315Z,0.30
2023-02-05T02:36:24.440Z,0.20
2023-02-05T02:38:54.390Z,0.30
2023-02-05T02:41:25.947Z,0.30
2023-02-05T02:43:55.995Z,0.10
2023-02-05T02:46:25.748Z,0.20
2023-02-05T02:48:54.056Z,0.20
2023-02-05T02:51:22.082Z,0.10
2023-02-05T02:53:52.649Z,0.10
2023-02-05T02:56:20.528Z,0.00
2023-02-05T02:58:49.710Z,0.00
2023-02-05T03:01:19.703Z,0.00
2023-02-05T03:03:51.020Z,-0.10
2023-02-05T03:06:18.938Z,-0.10
2023-02-05T03:08:48.503Z,-0.10
2023-02-05T03:11:16.520Z,-0.20
2023-02-05T03:13:44.491Z,-0.20
2023-02-05T03:16:12.674Z,-0.20
2023-02-05T03:18:41.972Z,-0.20
2023-02-05T03:21:12.466Z,-0.20
2023-02-05T03:24:38.553Z,-0.20
2023-02-05T03:27:06.461Z,-0.20
2023-02-05T03:29:36.506Z,-0.30
2023-02-05T03:32:10.065Z,-0.30
2023-02-05T03:34:43.767Z,-0.30
2023-02-05T03:37:13.811Z,-0.30
2023-02-05T03:39:47.693Z,-0.30
2023-02-05T03:42:20.819Z,-0.30
2023-02-05T03:45:28.647Z,-0.30
2023-02-05T03:48:15.679Z,-0.30
2023-02-05T03:50:47.935Z,-0.40
2023-02-05T03:53:19.039Z,-0.20
2023-02-05T03:55:47.875Z,-0.30
2023-02-05T03:58:18.283Z,-0.30
2023-02-05T04:00:46.246Z,-0.30
2023-02-05T04:03:14.239Z,-0.40
2023-02-05T04:05:42.111Z,-0.50
2023-02-05T04:08:11.350Z,-0.50
2023-02-05T04:10:39.217Z,-0.60
2023-02-05T04:13:07.106Z,-0.50
2023-02-05T04:15:35.376Z,-0.50
2023-02-05T04:18:03.841Z,-0.70
2023-02-05T04:20:31.685Z,-0.70
2023-02-05T04:22:59.557Z,-0.80
2023-02-05T04:25:28.799Z,-0.70
2023-02-05T04:27:56.774Z,-0.70
2023-02-05T04:30:24.717Z,-0.70
2023-02-05T04:32:52.580Z,-0.70
2023-02-05T04:35:20.462Z,-0.70
2023-02-05T04:37:48.315Z,-0.80
2023-02-05T04:40:16.185Z,-0.80
2023-02-05T04:42:45.932Z,-0.80
2023-02-05T04:45:13.841Z,-0.90
2023-02-05T04:47:41.693Z,-0.90
2023-02-05T04:50:10.043Z,-0.80
2023-02-05T04:52:37.945Z,-0.90
2023-02-05T04:55:06.639Z,-0.90
2023-02-05T04:57:34.498Z,-0.90
2023-02-05T05:00:03.794Z,-0.90
2023-02-05T05:02:31.681Z,-0.90
2023-02-05T05:04:59.573Z,-1.00
2023-02-05T05:07:27.532Z,-1.00
2023-02-05T05:09:55.390Z,-1.00
2023-02-05T05:12:23.258Z,-1.00
2023-02-05T05:14:51.118Z,-1.00
2023-02-05T05:17:20.347Z,-1.10
2023-02-05T05:19:48.216Z,-1.20
2023-02-05T05:22:16.104Z,-1.10
2023-02-05T05:24:43.982Z,-1.20
2023-02-05T05:27:11.832Z,-1.10
2023-02-05T05:29:40.045Z,-1.10
2023-02-05T05:32:07.917Z,-1.00
2023-02-05T05:34:37.371Z,-1.10
2023-02-05T05:37:05.225Z,-1.10
2023-02-05T05:39:50.488Z,-1.00
2023-02-05T05:42:35.948Z,-1.10
2023-02-05T05:45:03.908Z,-1.00
2023-02-05T05:47:31.776Z,-1.10
2023-02-05T05:50:01.034Z,-1.10
2023-02-05T05:52:31.473Z,-1.10
2023-02-05T05:55:00.196Z,-0.90
2023-02-05T05:57:28.959Z,-1.00
2023-02-05T05:59:56.928Z,-1.00
2023-02-05T06:02:24.819Z,-1.00
2023-02-05T06:04:52.948Z,-1.10
2023-02-05T06:07:22.173Z,-1.20
2023-02-05T06:09:50.123Z,-1.30
2023-02-05T06:12:17.972Z,-1.30
2023-02-05T06:14:45.930Z,-1.30
2023-02-05T06:17:13.827Z,-1.30
2023-02-05T06:19:41.728Z,-1.20
2023-02-05T06:22:09.623Z,-1.20
2023-02-05T06:24:38.960Z,-1.20
2023-02-05T06:27:06.834Z,-1.20
2023-02-05T06:29:34.730Z,-1.20
2023-02-05T06:32:02.688Z,-0.70
2023-02-05T06:34:30.723Z,-0.80
2023-02-05T06:36:58.657Z,-0.80
2023-02-05T06:39:26.776Z,-0.90
2023-02-05T06:41:56.047Z,-0.90
2023-02-05T06:44:24.321Z,-1.00
2023-02-05T06:46:52.245Z,-1.00
2023-02-05T06:49:20.199Z,-1.00
2023-02-05T06:51:48.108Z,-0.90
2023-02-05T06:54:16.008Z,-0.90
2023-02-05T06:56:43.972Z,-0.90
2023-02-05T06:59:13.209Z,-0.90
2023-02-05T07:01:41.193Z,-0.90
2023-02-05T07:04:09.113Z,-1.00
2023-02-05T07:06:37.002Z,-1.10
2023-02-05T07:09:05.055Z,-1.10
2023-02-05T07:11:33.037Z,-1.20
2023-02-05T07:14:01.779Z,-1.20
2023-02-05T07:16:31.096Z,-1.10
2023-02-05T07:18:59.034Z,-1.00
2023-02-05T07:21:27.002Z,-0.90
2023-02-05T07:23:54.886Z,-0.90
2023-02-05T07:26:23.819Z,-1.00
2023-02-05T07:28:51.738Z,-0.90
2023-02-05T07:31:19.933Z,-0.90
2023-02-05T07:33:49.187Z,-0.80
2023-02-05T07:36:18.135Z,-0.80
2023-02-05T07:38:46.342Z,-0.60
2023-02-05T07:41:15.254Z,-0.80
2023-02-05T07:43:43.121Z,-0.70
2023-02-05T07:46:12.222Z,-0.70
2023-02-05T07:48:40.210Z,-0.60
2023-02-05T07:51:09.414Z,-0.50
2023-02-05T07:53:37.265Z,-0.40
2023-02-05T07:56:05.413Z,-0.40
2023-02-05T07:58:33.219Z,-0.40
2023-02-05T08:01:02.251Z,-0.20
2023-02-05T08:03:30.256Z,-0.30
2023-02-05T08:05:58.142Z,-0.40
2023-02-05T08:08:27.364Z,-0.30
2023-02-05T08:10:58.826Z,-0.30
2023-02-05T08:13:26.757Z,-0.20
2023-02-05T08:15:54.669Z,-0.30
2023-02-05T08:18:22.594Z,-0.20
2023-02-05T08:20:53.145Z,-0.10
2023-02-05T08:23:21.121Z,-0.10
2023-02-05T08:25:53.825Z,0.10
2023-02-05T08:28:21.691Z,0.30
2023-02-05T08:30:49.594Z,0.40
2023-02-05T08:33:17.781Z,0.70
2023-02-05T08:35:45.613Z,1.30
2023-02-05T08:38:13.473Z,1.40
2023-02-05T08:40:41.306Z,1.90
2023-02-05T08:43:10.495Z,2.80
2023-02-05T08:45:39.047Z,4.60
2023-02-05T08:48:06.991Z,4.70
2023-02-05T08:50:34.827Z,4.90
2023-02-05T08:53:02.686Z,4.30
2023-02-05T08:55:30.530Z,4.30
2023-02-05T08:57:58.402Z,4.40
2023-02-05T09:00:28.304Z,4.40
2023-02-05T09:02:56.174Z,4.80
2023-02-05T09:05:24.008Z,5.00
2023-02-05T09:07:51.855Z,4.90
2023-02-05T09:10:19.823Z,5.50
2023-02-05T09:12:48.384Z,5.50
2023-02-05T09:15:16.256Z,5.70
2023-02-05T09:17:45.473Z,5.70
2023-02-05T09:20:13.745Z,5.80
2023-02-05T09:22:41.624Z,5.80
2023-02-05T09:25:10.262Z,6.10
2023-02-05T09:27:38.125Z,6.20
2023-02-05T09:30:06.474Z,6.50
2023-02-05T09:32:34.333Z,6.80
2023-02-05T09:35:03.510Z,6.80
2023-02-05T09:37:31.365Z,6.70
2023-02-05T09:40:20.173Z,6.60
2023-02-05T09:42:51.591Z,6.80
2023-02-05T09:45:28.075Z,6.90
2023-02-05T09:47:57.441Z,7.10
2023-02-05T09:50:29.816Z,7.20
2023-02-05T09:53:00.524Z,7.30
2023-02-05T09:55:29.520Z,7.60
2023-02-05T09:58:00.776Z,7.60
2023-02-05T10:00:29.620Z,8.00
2023-02-05T10:03:00.019Z,8.10
2023-02-05T10:05:30.844Z,8.00
2023-02-05T10:08:01.851Z,7.90
2023-02-05T10:10:29.998Z,8.10
2023-02-05T10:13:34.118Z,8.50
2023-02-05T10:16:20.718Z,8.50
2023-02-05T10:18:57.840Z,8.40
2023-02-05T10:21:42.211Z,8.40
2023-02-05T10:24:24.952Z,8.40
2023-02-05T10:26:53.458Z,8.20
2023-02-05T10:29:28.606Z,8.50
2023-02-05T10:32:03.569Z,8.20
2023-02-05T10:34:40.144Z,8.40
2023-02-05T10:37:13.150Z,8.40
2023-02-05T10:39:40.997Z,8.20
2023-02-05T10:42:19.930Z,8.00
2023-02-05T10:44:48.350Z,7.70
2023-02-05T10:47:17.810Z,7.30
2023-02-05T10:49:48.520Z,7.10
2023-02-05T10:52:17.826Z,7.00
2023-02-05T10:54:45.675Z,6.70
2023-02-05T10:57:14.540Z,6.70
2023-02-05T10:59:49.422Z,6.70
2023-02-05T11:02:17.244Z,6.40
2023-02-05T11:04:47.129Z,6.20
2023-02-05T11:07:17.850Z,6.00
2023-02-05T11:09:46.225Z,6.10
2023-02-05T11:12:18.697Z,5.90
2023-02-05T11:14:49.310Z,6.00
2023-02-05T11:17:21.473Z,5.90
2023-02-05T11:19:55.424Z,5.90
2023-02-05T11:22:31.381Z,5.90
2023-02-05T11:25:15.507Z,5.60
2023-02-05T11:27:46.646Z,5.50
2023-02-05T11:30:32.653Z,5.50
2023-02-05T11:33:28.471Z,5.50
2023-02-05T11:35:57.546Z,5.40
2023-02-05T11:38:31.426Z,5.50
2023-02-05T11:41:00.039Z,5.60
2023-02-05T11:43:29.468Z,5.30
2023-02-05T11:45:58.197Z,5.40
2023-02-05T11:48:35.942Z,5.40
2023-02-05T11:51:03.893Z,5.40
2023-02-05T11:53:34.041Z,5.20
2023-02-05T11:56:03.146Z,5.10
2023-02-05T11:58:36.902Z,5.00
2023-02-05T12:01:07.002Z,5.00
2023-02-05T12:03:35.303Z,5.00
2023-02-05T12:06:12.204Z,4.90
2023-02-05T12:08:44.595Z,4.90
2023-02-05T12:11:23.843Z,5.00
2023-02-05T12:13:57.918Z,5.00
2023-02-05T12:16:36.057Z,4.90
2023-02-05T12:19:07.709Z,4.90
2023-02-05T12:21:38.381Z,4.80
2023-02-05T12:24:16.045Z,4.80
2023-02-05T12:26:44.657Z,4.80
2023-02-05T12:29:27.716Z,4.70
2023-02-05T12:32:00.457Z,4.70
2023-02-05T12:34:32.688Z,4.70
2023-02-05T12:37:22.194Z,4.70
2023-02-05T12:39:54.133Z,4.70
2023-02-05T12:42:32.921Z,4.70
2023-02-05T12:45:22.542Z,4.70
2023-02-05T12:48:06.769Z,4.70
2023-02-05T12:50:48.923Z,4.60
2023-02-05T12:53:24.509Z,4.70
2023-02-05T12:56:18.801Z,4.60
2023-02-05T12:58:47.650Z,4.70
2023-02-05T13:01:16.991Z,4.70
2023-02-05T13:03:46.602Z,4.70
2023-02-05T13:06:15.861Z,4.60
2023-02-05T13:08:46.604Z,4.60
2023-02-05T13:11:17.951Z,4.60
2023-02-05T13:13:50.528Z,4.50
2023-02-05T13:16:18.926Z,4.50
2023-02-05T13:18:58.184Z,4.60
2023-02-05T13:21:43.737Z,4.60
2023-02-05T13:24:39.425Z,4.60
2023-02-05T13:27:33.482Z,4.50
2023-02-05T13:30:02.495Z,4.70
2023-02-05T13:32:34.207Z,4.50
2023-02-05T13:35:02.433Z,4.30
2023-02-05T13:37:45.226Z,4.30
2023-02-05T13:40:35.564Z,4.10
2023-02-05T13:43:24.499Z,4.10
2023-02-05T13:46:23.867Z,4.10
2023-02-05T13:49:10.265Z,4.20
2023-02-05T13:51:47.210Z,4.10
2023-02-05T13:54:53.936Z,4.00
2023-02-05T13:57:48.340Z,3.50
2023-02-05T14:00:17.552Z,3.40
2023-02-05T14:02:47.083Z,3.30
2023-02-05T14:05:14.924Z,3.30
2023-02-05T14:07:45.805Z,3.20
2023-02-05T14:10:25.879Z,3.20
2023-02-05T14:12:53.749Z,3.00
2023-02-05T14:15:36.574Z,3.00
2023-02-05T14:18:04.889Z,3.00
2023-02-05T14:20:37.659Z,3.00
2023-02-05T14:23:16.684Z,2.90
2023-02-05T14:26:14.299Z,3.00
2023-02-05T14:28:55.076Z,3.00
2023-02-05T14:31:49.709Z,3.30
2023-02-05T14:34:43.343Z,3.00
2023-02-05T14:37:27.825Z,3.10
2023-02-05T14:39:55.688Z,3.00
2023-02-05T14:42:23.535Z,3.10
2023-02-05T14:44:54.372Z,3.00
2023-02-05T14:47:26.132Z,3.00
2023-02-05T14:49:59.375Z,2.90
2023-02-05T14:52:28.456Z,2.90
2023-02-05T14:55:00.115Z,2.80
2023-02-05T14:57:29.953Z,2.80
2023-02-05T14:59:59.113Z,2.80
2023-02-05T15:03:06.862Z,2.80
2023-02-05T15:05:37.431Z,2.80
2023-02-05T15:08:11.891Z,2.70
2023-02-05T15:10:47.105Z,2.60
2023-02-05T15:13:15.782Z,2.70
2023-02-05T15:15:43.651Z,2.80
2023-02-05T15:18:23.252Z,2.70
2023-02-05T15:20:51.112Z,2.70
2023-02-05T15:23:35.318Z,2.50
2023-02-05T15:26:04.043Z,2.50
2023-02-05T15:28:33.705Z,2.50
2023-02-05T15:31:09.237Z,2.50
2023-02-05T15:33:44.435Z,2.50
2023-02-05T15:36:17.272Z,2.40
2023-02-05T15:38:47.625Z,2.50
2023-02-05T15:41:15.534Z,2.50
2023-02-05T15:43:49.608Z,2.30
2023-02-05T15:46:17.505Z,2.30
2023-02-05T15:48:46.718Z,2.40
2023-02-05T15:51:18.503Z,2.30
2023-02-05T15:53:47.247Z,2.40
2023-02-05T15:56:17.655Z,2.40
2023-02-05T15:58:48.719Z,2.40
2023-02-05T16:01:24.110Z,2.40
2023-02-05T16:03:53.360Z,2.40
2023-02-05T16:06:21.257Z,2.40
2023-02-05T16:08:49.419Z,2.40
2023-02-05T16:11:27.190Z,2.20
2023-02-05T16:14:08.633Z,2.20
2023-02-05T16:16:37.550Z,2.20
2023-02-05T16:19:08.901Z,2.20
2023-02-05T16:21:38.377Z,2.20
2023-02-05T16:24:07.555Z,2.20
2023-02-05T16:26:37.599Z,2.20
2023-02-05T16:29:11.651Z,2.30
2023-02-05T16:31:48.092Z,2.20
2023-02-05T16:34:18.611Z,2.20
2023-02-05T16:36:47.500Z,2.10
2023-02-05T16:39:20.292Z,2.20
2023-02-05T16:41:49.339Z,2.30
2023-02-05T16:44:27.204Z,2.20
2023-02-05T16:47:15.586Z,2.20
2023-02-05T16:49:44.985Z,2.20
2023-02-05T16:52:30.760Z,2.10
2023-02-05T16:54:59.177Z,2.10
2023-02-05T16:57:32.290Z,1.90
2023-02-05T17:00:01.337Z,1.90
2023-02-05T17:02:32.451Z,2.00
2023-02-05T17:05:02.172Z,1.90
2023-02-05T17:07:30.196Z,1.90
2023-02-05T17:10:16.851Z,1.90
2023-02-05T17:12:49.733Z,2.00
2023-02-05T17:15:40.145Z,2.10
2023-02-05T17:18:25.435Z,2.10
2023-02-05T17:21:12.118Z,2.10
2023-02-05T17:23:39.950Z,2.10
2023-02-05T17:26:10.044Z,2.10
2023-02-05T17:28:43.813Z,2.00
2023-02-05T17:31:13.491Z,2.10
2023-02-05T17:33:41.344Z,2.20
2023-02-05T17:36:14.104Z,2.20
2023-02-05T17:38:41.950Z,2.30
2023-02-05T17:41:30.695Z,2.10
2023-02-05T17:43:58.570Z,2.00
2023-02-05T17:46:26.520Z,2.00
2023-02-05T17:48:54.367Z,1.90
2023-02-05T17:51:23.944Z,2.00
2023-02-05T17:53:51.925Z,1.90
2023-02-05T17:56:21.263Z,1.80
2023-02-05T17:58:50.166Z,1.80
2023-02-05T18:01:18.026Z,1.90
2023-02-05T18:03:45.947Z,1.90
2023-02-05T18:06:14.302Z,2.20
2023-02-05T18:08:43.495Z,2.00
2023-02-05T18:11:11.355Z,2.10
2023-02-05T18:13:39.183Z,2.10
2023-02-05T18:16:07.111Z,1.90
2023-02-05T18:18:36.694Z,1.80
2023-02-05T18:21:04.655Z,1.80
2023-02-05T18:23:32.596Z,1.80
2023-02-05T18:26:01.922Z,1.90
2023-02-05T18:28:29.777Z,1.90
2023-02-05T18:30:59.275Z,1.90
2023-02-05T18:33:27.290Z,2.00
2023-02-05T18:35:55.212Z,2.00
2023-02-05T18:38:23.446Z,2.00
2023-02-05T18:40:51.600Z,1.90
2023-02-05T18:43:20.788Z,1.80
2023-02-05T18:45:48.671Z,1.80
2023-02-05T18:48:16.503Z,1.90
2023-02-05T18:50:44.352Z,1.90
2023-02-05T18:53:12.189Z,1.90
2023-02-05T18:55:40.392Z,1.90
2023-02-05T18:58:08.431Z,1.80
2023-02-05T19:00:37.694Z,1.80
2023-02-05T19:03:05.636Z,1.80
2023-02-05T19:05:33.499Z,1.80
2023-02-05T19:08:01.324Z,1.90
2023-02-05T19:10:29.164Z,1.80
2023-02-05T19:12:57.005Z,1.80
2023-02-05T19:15:24.879Z,1.80
2023-02-05T19:17:54.164Z,1.70
2023-02-05T19:20:22.135Z,1.70
2023-02-05T19:22:52.932Z,1.70
2023-02-05T19:25:20.790Z,1.60
2023-02-05T19:27:48.665Z,1.70
2023-02-05T19:30:16.855Z,1.70
2023-02-05T19:32:44.701Z,1.80
2023-02-05T19:35:14.254Z,1.80
2023-02-05T19:37:42.122Z,1.80
2023-02-05T19:40:12.377Z,1.80
2023-02-05T19:42:41.558Z,1.90
2023-02-05T19:45:10.107Z,1.80
2023-02-05T19:47:38.004Z,2.10
2023-02-05T19:50:06.090Z,2.00
2023-02-05T19:52:35.286Z,1.80
2023-02-05T19:55:03.142Z,1.80
2023-02-05T19:57:31.991Z,1.90
2023-02-05T19:59:59.803Z,2.00
2023-02-05T20:02:28.120Z,2.00
2023-02-05T20:04:56.134Z,1.90
2023-02-05T20:07:23.984Z,1.70
2023-02-05T20:09:53.172Z,1.70
2023-02-05T20:12:21.011Z,1.80
2023-02-05T20:14:48.839Z,1.80
2023-02-05T20:17:17.726Z,1.70
2023-02-05T20:19:45.569Z,1.80
2023-02-05T20:22:13.442Z,1.80
2023-02-05T20:24:41.295Z,1.90
2023-02-05T20:27:10.499Z,1.90
2023-02-05T20:29:55.955Z,1.80
2023-02-05T20:32:23.897Z,1.80
2023-02-05T20:34:51.809Z,1.80
2023-02-05T20:37:20.336Z,1.80
2023-02-05T20:39:48.286Z,1.90
2023-02-05T20:42:17.541Z,1.80
2023-02-05T20:44:45.711Z,1.80
2023-02-05T20:47:14.261Z,1.80
2023-02-05T20:49:42.747Z,1.80
2023-02-05T20:52:10.785Z,1.90
2023-02-05T20:54:38.645Z,1.70
2023-02-05T20:57:07.702Z,1.70
2023-02-05T20:59:37.524Z,1.90
2023-02-05T21:02:05.506Z,1.80
2023-02-05T21:04:33.440Z,1.70
2023-02-05T21:07:01.281Z,1.80
2023-02-05T21:09:29.136Z,1.90
2023-02-05T21:11:56.990Z,1.80
2023-02-05T21:14:24.867Z,2.20
2023-02-05T21:16:54.126Z,2.10
2023-02-05T21:19:21.964Z,1.90
2023-02-05T21:21:51.058Z,1.80
2023-02-05T21:24:20.623Z,1.70
2023-02-05T21:26:49.279Z,1.70
2023-02-05T21:29:18.241Z,1.60
2023-02-05T21:31:47.350Z,1.60
2023-02-05T21:34:17.858Z,1.70
2023-02-05T21:36:45.840Z,1.80
2023-02-05T21:39:15.685Z,1.80
2023-02-05T21:41:44.793Z,1.80
2023-02-05T21:44:12.674Z,1.70
2023-02-05T21:46:40.511Z,1.70
2023-02-05T21:49:08.386Z,1.70
2023-02-05T21:51:37.691Z,1.70
2023-02-05T21:54:06.529Z,1.80
2023-02-05T21:56:35.425Z,1.70
2023-02-05T21:59:03.277Z,1.70
2023-02-05T22:01:32.004Z,1.70
2023-02-05T22:04:00.648Z,1.80
2023-02-05T22:06:30.185Z,1.80
2023-02-05T22:08:59.599Z,1.70
2023-02-05T22:11:27.684Z,1.80
2023-02-05T22:13:56.003Z,1.80
2023-02-05T22:16:24.558Z,1.70
2023-02-05T22:18:52.672Z,1.70
2023-02-05T22:21:21.306Z,1.60
2023-02-05T22:23:50.872Z,1.60
2023-02-05T22:26:20.812Z,1.70
2023-02-05T22:28:48.864Z,1.70
2023-02-05T22:31:17.620Z,1.80
2023-02-05T22:33:46.416Z,1.90
2023-02-05T22:36:15.316Z,2.30
2023-02-05T22:38:43.287Z,2.10
2023-02-05T22:41:12.040Z,2.10
2023-02-05T22:43:41.327Z,2.00
2023-02-05T22:46:09.898Z,2.00
2023-02-05T22:48:37.901Z,2.00
2023-02-05T22:51:06.289Z,1.90
2023-02-05T22:53:34.208Z,1.80
2023-02-05T22:56:02.184Z,1.80
2023-02-05T22:58:30.046Z,1.70
2023-02-05T23:00:59.449Z,1.80
2023-02-05T23:03:27.384Z,1.70
2023-02-05T23:05:55.232Z,1.70
2023-02-05T23:08:23.092Z,1.60
2023-02-05T23:10:50.964Z,1.60
2023-02-05T23:13:18.800Z,1.70
2023-02-05T23:15:46.661Z,1.50
2023-02-05T23:18:15.864Z,1.60
2023-02-05T23:20:43.711Z,1.80
2023-02-05T23:23:11.528Z,1.70
2023-02-05T23:25:39.374Z,2.00
2023-02-05T23:28:07.253Z,1.80
2023-02-05T23:30:35.247Z,1.70
2023-02-05T23:33:03.116Z,1.70
2023-02-05T23:35:32.315Z,1.70
2023-02-05T23:38:00.154Z,1.70
2023-02-05T23:40:28.058Z,1.70
2023-02-05T23:42:55.940Z,1.70
2023-02-05T23:45:24.625Z,1.60
2023-02-05T23:47:52.440Z,1.50
2023-02-05T23:50:20.282Z,1.50
2023-02-05T23:52:49.456Z,1.60
2023-02-05T23:55:17.475Z,1.60
2023-02-05T23:57:45.305Z,1.60
